Hauptseite
METAR-TAF:

METAR-TAF

Flughäfen :

Bergerac, Frankreich

Flughafen Bergerac

Breite: 44-49N, Länge: 000-31E, Höhe: 51 m

Beobachtung

Neuester Wetterbericht von vor 24 Minuten, um 09:30 UTC
Wind 6 kt aus Südost, variierte zwischen Ost und Süd/Südwest
Temperatur 24°C
Luftfeuchtigkeit 44%
Luftdruck 1024 hPa
Sichtweite 10 km oder mehr
keine Wolken unter 1500 m und keine Kumulonimbus oder Gewitterwolken

METAR: LFBE 190930Z AUTO 14006KT 080V200 CAVOK 24/11 Q1024 NOSIG

Zeit: 11:54 (09:54 UTC)

Prognose

Neuester Wetterbericht von vor 4 Stunden und 54 Minuten, um 05:00 UTC
Gültige Prognose vom 19 um 06 UTC bis 20 um 06 UTC
Wind 5 kt aus Ost/Südost
Sichtweite 10 km oder mehr
keine Wolken unter 1500 m und keine Kumulonimbus oder Gewitterwolken
Zeitweise
vom 19 um 10 UTC bis 19 um 18 UTC
Wind 10 kt aus Südost, Böen bis zu 20 kt

TAF: LFBE 190500Z 1906/2006 12005KT CAVOK TEMPO 1910/1918 14010G20KT

Wetterbeobachtungen und Prognosen von mehr als 4000 Flughäfen (METAR und TAF Bericht).

Die verfügbaren Stationen werden durch gelbe und rote Markierungen auf der Karte dargestellt.

Führen Sie die Maus auf sie, um den Namen der Station zu sehen.

Darauf klicken, um die Beobachtung von Wetterbeobachtungen und Prognosen zu sehen.

Um die Karte zu ändern : klicken Sie auf den grünen Tasten mit einem schwarzen Kreuz Zum Vergrößern, auf den grünen Button mit einem Gedankenstrich zu verkleinern, oder auf die grünen Pfeile für benachbarte Karten.


METAR-TAF: